Airport View

Enter AWOS ICAO identifier for current METAR.

ex. KFNL

KHWO 261153Z 36004KT 10SM CLR 28/24 A3010 RMK AO2 SLP193 T02830239 10283 20256 53009

26 Jun 2019 12:23

Phone: 954-983-5904

Other Area AWOS: KFLL - KOPF - KFXE - KMIA

TAF KFLL 261141Z 2612/2718 VRB03KT P6SM SKC FM261400 05005KT P6SM FEW035 SCT060 FM261700 09010KT P6SM VCSH SCT025 BKN050 FM270100 08005KT P6SM FEW035